Time;durP1;ratioP1;P1;durP2;ratioP2;P2;SDS_P1;SDS_P2;PMS_P1;PMS_P2;Temp;Humidity;BMP_temperature;BMP_pressure;BME280_temperature;BME280_humidity;BME280_pressure;Samples;Min_cycle;Max_cycle;Signal;HPM_P1;HPM_P2
2022/08/22 00:01:43;;;;;;;4.93;3.87;;;18.30;99.90;;;;;;5091996;28;20426;-45
2022/08/22 00:04:18;;;;;;;4.20;3.80;;;18.20;99.90;;;;;;5076807;28;20475;-46
2022/08/22 00:06:59;;;;;;;6.23;4.27;;;18.20;99.90;;;;;;5091214;28;20465;-45
2022/08/22 00:10:00;;;;;;;8.93;3.90;;;18.10;99.90;;;;;;5091915;28;20423;-45
2022/08/22 00:13:00;;;;;;;4.33;3.93;;;18.10;99.90;;;;;;5091620;28;20414;-46
2022/08/22 00:16:01;;;;;;;4.30;3.90;;;18.00;99.90;;;;;;5087283;28;20435;-48
2022/08/22 00:18:34;;;;;;;4.67;4.07;;;18.00;99.90;;;;;;5090969;28;20794;-43
2022/08/22 00:21:12;;;;;;;5.17;4.00;;;17.90;99.90;;;;;;5091834;28;20816;-45
2022/08/22 00:23:48;;;;;;;4.40;4.00;;;17.90;99.90;;;;;;5091579;28;20410;-45
2022/08/22 00:26:20;;;;;;;5.40;3.93;;;17.80;99.90;;;;;;5091453;28;20465;-45
2022/08/22 00:28:56;;;;;;;5.43;4.37;;;17.70;99.90;;;;;;5090747;28;20522;-48
2022/08/22 00:31:34;;;;;;;6.47;4.37;;;17.70;99.90;;;;;;5091474;28;20457;-49
2022/08/22 00:34:16;;;;;;;4.47;4.03;;;17.70;99.90;;;;;;5090545;28;20426;-46
2022/08/22 00:37:01;;;;;;;4.40;4.00;;;17.60;99.90;;;;;;5076440;28;20434;-47
2022/08/22 00:39:51;;;;;;;6.50;4.50;;;17.60;99.90;;;;;;5090965;28;20454;-47
2022/08/22 00:42:28;;;;;;;5.23;4.60;;;17.60;99.90;;;;;;5091193;28;20495;-46
2022/08/22 00:45:02;;;;;;;5.10;4.23;;;17.50;99.90;;;;;;5091242;28;20499;-47
2022/08/22 00:47:35;;;;;;;4.33;4.00;;;17.50;99.90;;;;;;5090257;28;20470;-47
2022/08/22 00:50:21;;;;;;;4.33;3.93;;;17.50;99.90;;;;;;5091015;28;20935;-46
2022/08/22 00:53:17;;;;;;;5.23;4.53;;;17.40;99.90;;;;;;5091018;28;20461;-48
2022/08/22 00:56:14;;;;;;;5.17;4.40;;;17.40;99.90;;;;;;5088772;28;20441;-43
2022/08/22 00:59:04;;;;;;;6.43;4.23;;;17.40;99.90;;;;;;5084409;28;20517;-48
2022/08/22 01:01:34;;;;;;;5.80;4.40;;;17.30;99.90;;;;;;5090740;28;20488;-46
2022/08/22 01:04:31;;;;;;;4.73;4.00;;;17.30;99.90;;;;;;5090591;28;20442;-44
2022/08/22 01:07:21;;;;;;;4.77;4.17;;;17.20;99.90;;;;;;5089866;28;20478;-46
2022/08/22 01:09:50;;;;;;;4.23;3.83;;;17.20;99.90;;;;;;5090339;28;20445;-47
2022/08/22 01:12:36;;;;;;;4.17;3.77;;;17.20;99.90;;;;;;5090444;28;20479;-46
2022/08/22 01:15:09;;;;;;;7.20;4.63;;;17.20;99.90;;;;;;5090544;28;20471;-45
2022/08/22 01:18:08;;;;;;;4.17;3.77;;;17.10;99.90;;;;;;5089867;28;20826;-46
2022/08/22 01:21:14;;;;;;;6.83;4.20;;;17.20;99.90;;;;;;5090280;28;20796;-46
2022/08/22 01:24:16;;;;;;;4.87;4.37;;;17.10;99.90;;;;;;5090605;28;20429;-46
2022/08/22 01:27:24;;;;;;;4.70;4.23;;;17.10;99.90;;;;;;5089639;28;20850;-45
2022/08/22 01:30:01;;;;;;;5.90;4.60;;;17.10;99.90;;;;;;5090388;28;20495;-47
2022/08/22 01:32:30;;;;;;;5.80;4.60;;;17.00;99.90;;;;;;5090335;28;20422;-47
2022/08/22 01:35:13;;;;;;;4.93;4.47;;;17.00;99.90;;;;;;5090355;28;20851;-44
2022/08/22 01:38:05;;;;;;;5.90;4.10;;;16.90;99.90;;;;;;5089625;28;20422;-49
2022/08/22 01:41:05;;;;;;;5.10;4.63;;;16.90;99.90;;;;;;5090075;28;20422;-44
2022/08/22 01:43:48;;;;;;;5.43;4.90;;;16.90;99.90;;;;;;5089678;28;20422;-50
2022/08/22 01:46:41;;;;;;;4.40;4.00;;;16.80;99.90;;;;;;5089899;28;20510;-48
2022/08/22 01:49:19;;;;;;;6.00;4.63;;;16.80;99.90;;;;;;5090001;28;20507;-45
2022/08/22 01:51:57;;;;;;;6.73;4.47;;;16.80;99.90;;;;;;5089773;28;20414;-50
2022/08/22 01:55:00;;;;;;;5.87;4.90;;;16.70;99.90;;;;;;5090158;28;20490;-46
2022/08/22 01:57:26;;;;;;;5.63;4.97;;;16.70;99.90;;;;;;5060864;28;20651;-43
2022/08/22 01:59:57;;;;;;;8.00;5.00;;;16.60;99.90;;;;;;5089845;28;20545;-45
2022/08/22 02:02:29;;;;;;;5.57;5.03;;;16.70;99.90;;;;;;5089415;28;20461;-46
2022/08/22 02:05:17;;;;;;;4.93;4.43;;;16.60;99.90;;;;;;5089771;28;20434;-44
2022/08/22 02:08:17;;;;;;;6.77;4.93;;;16.60;99.90;;;;;;5089067;28;20477;-49
2022/08/22 02:10:56;;;;;;;7.50;4.90;;;16.60;99.90;;;;;;5069510;28;20807;-46
2022/08/22 02:13:35;;;;;;;5.67;5.07;;;16.50;99.90;;;;;;5089702;28;20506;-46
2022/08/22 02:16:32;;;;;;;5.90;5.40;;;16.60;99.90;;;;;;5089940;28;20520;-47
2022/08/22 02:19:04;;;;;;;5.43;5.00;;;16.60;99.90;;;;;;5089302;28;20445;-46
2022/08/22 02:21:55;;;;;;;7.40;5.23;;;16.60;99.90;;;;;;5089665;28;20456;-44
2022/08/22 02:24:39;;;;;;;7.63;5.13;;;16.60;99.90;;;;;;5089627;28;20426;-44
2022/08/22 02:27:19;;;;;;;6.60;5.67;;;16.60;99.90;;;;;;5088986;28;20494;-47
2022/08/22 02:30:10;;;;;;;6.50;5.60;;;16.60;99.90;;;;;;5089644;28;20430;-43
2022/08/22 02:32:42;;;;;;;5.70;5.10;;;16.60;99.90;;;;;;5089566;28;20422;-50
2022/08/22 02:35:38;;;;;;;6.30;5.47;;;16.50;99.90;;;;;;5089574;28;20410;-45
2022/08/22 02:38:20;;;;;;;9.70;5.53;;;16.50;99.90;;;;;;5089111;28;20419;-46
2022/08/22 02:41:13;;;;;;;6.37;5.60;;;16.50;99.90;;;;;;5089591;28;21079;-45
2022/08/22 02:43:50;;;;;;;6.67;5.97;;;16.50;99.90;;;;;;5089341;28;20426;-45
2022/08/22 02:46:29;;;;;;;6.10;5.10;;;16.50;99.90;;;;;;5089391;28;20469;-47
2022/08/22 02:49:03;;;;;;;5.73;5.10;;;16.40;99.90;;;;;;5088926;28;20836;-44
2022/08/22 02:51:34;;;;;;;5.90;5.13;;;16.40;99.90;;;;;;5089514;28;20847;-47
2022/08/22 02:54:07;;;;;;;7.43;5.63;;;16.30;99.90;;;;;;5089364;28;20423;-46
2022/08/22 02:57:09;;;;;;;5.50;4.93;;;16.30;99.90;;;;;;5087803;28;20422;-45
2022/08/22 02:59:38;;;;;;;7.60;5.30;;;16.30;99.90;;;;;;5050140;28;20430;-46
2022/08/22 03:02:32;;;;;;;6.13;5.53;;;16.30;99.90;;;;;;5085609;28;20433;-46
2022/08/22 03:05:13;;;;;;;5.60;5.20;;;16.20;99.90;;;;;;5082477;28;20454;-48
2022/08/22 03:07:44;;;;;;;6.10;5.30;;;16.20;99.90;;;;;;5087492;28;20515;-43
2022/08/22 03:10:17;;;;;;;6.17;5.63;;;16.20;99.90;;;;;;5089325;28;20773;-50
2022/08/22 03:13:24;;;;;;;7.03;5.70;;;16.20;99.90;;;;;;5089295;28;20563;-49
2022/08/22 03:15:58;;;;;;;6.17;5.77;;;16.20;99.90;;;;;;5068300;28;20426;-48
2022/08/22 03:18:40;;;;;;;7.23;6.50;;;16.20;99.90;;;;;;5090368;28;20790;-46
2022/08/22 03:21:21;;;;;;;6.63;5.87;;;16.20;99.90;;;;;;5085183;28;20421;-44
2022/08/22 03:23:55;;;;;;;6.30;5.80;;;16.20;99.90;;;;;;5092844;28;20435;-48
2022/08/22 03:26:28;;;;;;;8.40;5.90;;;16.20;99.90;;;;;;5092496;28;20512;-50
2022/08/22 03:29:11;;;;;;;6.03;5.10;;;16.20;99.90;;;;;;5092169;28;20897;-46
2022/08/22 03:32:03;;;;;;;7.37;6.00;;;16.20;99.90;;;;;;5092321;28;20932;-44
2022/08/22 03:34:29;;;;;;;6.10;5.50;;;16.10;99.90;;;;;;5092635;28;20472;-46
2022/08/22 03:37:22;;;;;;;8.20;7.30;;;16.10;99.90;;;;;;5091877;28;20434;-45
2022/08/22 03:39:54;;;;;;;6.53;5.93;;;16.10;99.90;;;;;;5092424;28;20191;-46
2022/08/22 03:43:04;;;;;;;6.40;5.80;;;16.10;99.90;;;;;;5092074;28;20519;-46
2022/08/22 03:45:54;;;;;;;7.03;6.20;;;16.10;99.90;;;;;;5092239;28;20422;-44
2022/08/22 03:48:53;;;;;;;6.93;5.80;;;16.00;99.90;;;;;;5091606;28;20472;-46
2022/08/22 03:51:57;;;;;;;8.30;6.73;;;16.00;99.90;;;;;;5092254;28;20423;-44
2022/08/22 03:55:08;;;;;;;7.60;6.20;;;16.00;99.90;;;;;;5066074;28;20819;-47
2022/08/22 03:57:49;;;;;;;6.93;6.13;;;15.90;99.90;;;;;;5065966;28;20430;-46
2022/08/22 04:00:50;;;;;;;7.70;6.90;;;15.90;99.90;;;;;;5092120;28;20749;-46
2022/08/22 04:03:25;;;;;;;6.70;6.10;;;15.90;99.90;;;;;;5092024;28;20433;-45
2022/08/22 04:06:18;;;;;;;6.27;5.67;;;15.80;99.90;;;;;;5091906;28;20465;-44
2022/08/22 04:08:47;;;;;;;7.90;6.40;;;15.80;99.90;;;;;;5091175;28;20410;-48
2022/08/22 04:11:48;;;;;;;7.33;6.63;;;15.80;99.90;;;;;;5091838;28;20434;-44
2022/08/22 04:14:50;;;;;;;8.33;7.07;;;15.80;99.90;;;;;;5091903;28;20418;-46
2022/08/22 04:17:52;;;;;;;7.50;6.80;;;15.80;99.90;;;;;;5090932;28;20422;-47
2022/08/22 04:21:01;;;;;;;7.00;6.20;;;15.80;99.90;;;;;;5091624;28;20555;-45
2022/08/22 04:23:34;;;;;;;8.23;6.40;;;15.80;99.90;;;;;;5091557;28;20422;-45
2022/08/22 04:26:14;;;;;;;7.27;6.57;;;15.80;99.90;;;;;;5091372;28;20458;-49
2022/08/22 04:28:52;;;;;;;7.73;6.83;;;15.80;99.90;;;;;;5090693;28;20417;-47
2022/08/22 04:31:31;;;;;;;7.80;6.70;;;15.80;99.90;;;;;;5091598;28;20434;-44
2022/08/22 04:34:10;;;;;;;7.90;6.97;;;15.80;99.90;;;;;;5091407;28;20458;-46
2022/08/22 04:36:42;;;;;;;7.90;6.73;;;15.80;99.90;;;;;;5090620;28;20429;-48
2022/08/22 04:39:31;;;;;;;7.07;6.37;;;15.80;99.90;;;;;;5091111;28;20472;-46
2022/08/22 04:42:33;;;;;;;9.00;6.30;;;15.80;99.90;;;;;;5084235;28;20512;-46
2022/08/22 04:45:32;;;;;;;6.73;6.03;;;15.80;99.90;;;;;;5047259;28;20458;-46
2022/08/22 04:48:09;;;;;;;6.77;6.13;;;15.80;99.90;;;;;;5075193;28;20458;-45
2022/08/22 04:50:41;;;;;;;12.57;6.63;;;15.80;99.90;;;;;;5090983;28;20414;-48
2022/08/22 04:53:18;;;;;;;6.90;6.30;;;15.80;99.90;;;;;;5090567;28;20421;-44
2022/08/22 04:56:08;;;;;;;8.37;6.57;;;15.80;99.90;;;;;;5088478;28;20455;-49
2022/08/22 04:58:43;;;;;;;7.47;6.70;;;15.80;99.90;;;;;;5090010;28;20438;-49
2022/08/22 05:01:12;;;;;;;7.43;6.67;;;15.80;99.90;;;;;;5090967;28;20986;-45
2022/08/22 05:03:44;;;;;;;8.20;7.33;;;15.80;99.90;;;;;;5090274;28;20502;-45
2022/08/22 05:06:14;;;;;;;7.10;6.33;;;15.90;99.90;;;;;;5090849;28;20470;-46
2022/08/22 05:08:41;;;;;;;8.17;7.37;;;16.00;99.90;;;;;;5090033;28;20479;-49
2022/08/22 05:11:10;;;;;;;7.13;6.53;;;16.10;99.90;;;;;;5090888;28;20433;-46
2022/08/22 05:13:45;;;;;;;7.77;6.97;;;16.10;99.90;;;;;;5090544;28;20909;-44
2022/08/22 05:16:17;;;;;;;8.60;6.83;;;16.20;99.90;;;;;;5090629;28;21155;-47
2022/08/22 05:18:59;;;;;;;10.27;7.80;;;16.30;99.90;;;;;;5089769;28;20434;-50
2022/08/22 05:21:31;;;;;;;8.10;7.20;;;16.30;99.90;;;;;;5090676;28;20500;-46
2022/08/22 05:24:05;;;;;;;9.03;8.23;;;16.30;99.90;;;;;;5090502;28;20410;-47
2022/08/22 05:26:37;;;;;;;8.73;7.90;;;16.50;99.90;;;;;;5089984;28;20485;-46
2022/08/22 05:29:07;;;;;;;9.17;8.27;;;16.60;99.90;;;;;;5090220;28;20835;-45
2022/08/22 05:31:47;;;;;;;8.47;7.70;;;16.60;99.90;;;;;;5090429;28;20758;-49
2022/08/22 05:34:19;;;;;;;9.20;8.20;;;16.70;99.90;;;;;;5090251;28;20414;-47
2022/08/22 05:37:11;;;;;;;9.13;8.37;;;16.80;99.90;;;;;;5089204;28;20509;-45
2022/08/22 05:39:38;;;;;;;10.30;8.50;;;16.90;99.90;;;;;;5089607;28;20434;-43
2022/08/22 05:42:10;;;;;;;9.97;8.83;;;16.90;99.90;;;;;;5089891;28;20422;-45
2022/08/22 05:44:37;;;;;;;9.03;8.13;;;17.00;99.90;;;;;;5090094;28;20988;-48
2022/08/22 05:47:03;;;;;;;10.43;9.20;;;17.10;99.90;;;;;;5087704;28;20523;-44
2022/08/22 05:49:37;;;;;;;10.73;9.57;;;17.20;99.90;;;;;;5089149;28;20949;-49
2022/08/22 05:52:15;;;;;;;10.77;9.63;;;17.40;99.90;;;;;;5089507;28;20172;-47
2022/08/22 05:54:52;;;;;;;12.13;8.90;;;17.60;99.90;;;;;;5087430;28;20481;-45
2022/08/22 05:57:37;;;;;;;11.27;10.00;;;17.60;99.90;;;;;;5085009;28;20417;-44
2022/08/22 06:00:15;;;;;;;9.97;8.97;;;17.90;99.90;;;;;;5086352;28;20422;-47
2022/08/22 06:03:25;;;;;;;10.87;9.57;;;18.10;99.90;;;;;;5090079;28;20517;-44
2022/08/22 06:05:55;;;;;;;12.00;8.40;;;18.30;99.90;;;;;;5067878;28;20454;-46
2022/08/22 06:08:25;;;;;;;10.60;8.67;;;18.40;99.90;;;;;;5088692;28;20465;-47
2022/08/22 06:10:54;;;;;;;9.87;8.87;;;18.60;99.90;;;;;;5089278;28;20422;-49
2022/08/22 06:13:29;;;;;;;9.73;8.63;;;18.80;99.90;;;;;;5089151;28;20422;-46
2022/08/22 06:16:06;;;;;;;11.33;9.43;;;19.00;99.90;;;;;;5081459;28;20833;-46
2022/08/22 06:18:34;;;;;;;9.70;8.80;;;19.10;99.90;;;;;;5088475;28;21014;-45
2022/08/22 06:21:05;;;;;;;10.67;9.60;;;19.20;99.90;;;;;;5089636;28;20442;-50
2022/08/22 06:23:51;;;;;;;12.43;10.03;;;19.20;99.90;;;;;;5089796;28;20914;-46
2022/08/22 06:26:18;;;;;;;11.83;10.50;;;19.20;99.90;;;;;;5089669;28;20896;-49
2022/08/22 06:28:46;;;;;;;11.47;10.27;;;19.10;99.90;;;;;;5089048;28;20434;-48
2022/08/22 06:31:21;;;;;;;12.60;9.63;;;19.00;99.90;;;;;;5089379;28;20505;-50
2022/08/22 06:34:07;;;;;;;14.43;8.83;;;19.10;99.90;;;;;;5089590;28;20480;-48
2022/08/22 06:36:35;;;;;;;15.27;10.00;;;19.20;99.90;;;;;;5089041;28;20422;-47
2022/08/22 06:39:24;;;;;;;10.00;9.00;;;19.10;99.90;;;;;;5089272;28;20525;-47
2022/08/22 06:41:59;;;;;;;10.53;9.50;;;19.10;99.90;;;;;;5079303;28;20437;-44
2022/08/22 06:44:51;;;;;;;10.70;9.10;;;19.10;99.90;;;;;;5089159;28;20428;-46
2022/08/22 06:47:39;;;;;;;14.20;9.53;;;19.00;99.90;;;;;;5087545;28;20465;-46
2022/08/22 06:50:18;;;;;;;10.17;9.17;;;19.00;99.90;;;;;;5087160;28;20422;-49
2022/08/22 06:52:59;;;;;;;11.03;7.90;;;18.90;99.90;;;;;;5089481;28;20422;-49
2022/08/22 06:55:27;;;;;;;9.70;8.10;;;18.90;99.90;;;;;;5090918;28;20415;-47
2022/08/22 06:58:06;;;;;;;8.80;7.77;;;19.00;99.90;;;;;;5092479;28;21182;-46
2022/08/22 07:00:33;;;;;;;10.17;9.00;;;19.10;99.90;;;;;;5092975;28;20430;-49
2022/08/22 07:03:21;;;;;;;11.10;9.47;;;19.20;99.90;;;;;;5092292;28;20422;-48
2022/08/22 07:05:48;;;;;;;8.53;7.73;;;19.30;99.90;;;;;;5089225;28;20434;-45
2022/08/22 07:08:20;;;;;;;10.40;8.27;;;19.40;99.90;;;;;;5092184;28;20418;-45
2022/08/22 07:11:06;;;;;;;8.93;7.83;;;19.60;99.90;;;;;;5089953;28;20878;-47
2022/08/22 07:13:38;;;;;;;8.03;7.27;;;19.90;99.90;;;;;;5091158;28;20410;-47
2022/08/22 07:16:07;;;;;;;7.83;7.03;;;20.10;99.90;;;;;;5093070;28;20423;-46
2022/08/22 07:18:33;;;;;;;10.57;8.20;;;20.20;99.90;;;;;;5092193;28;20426;-44
2022/08/22 07:21:03;;;;;;;9.00;7.07;;;20.20;99.90;;;;;;5092658;28;20426;-48
2022/08/22 07:23:44;;;;;;;9.27;6.93;;;20.30;99.90;;;;;;5092688;28;20659;-48
2022/08/22 07:26:21;;;;;;;8.00;6.93;;;20.40;99.90;;;;;;5092457;28;20473;-48
2022/08/22 07:28:50;;;;;;;11.40;7.13;;;20.50;99.90;;;;;;5091358;28;20418;-47
2022/08/22 07:31:36;;;;;;;8.53;7.00;;;20.60;99.90;;;;;;5092699;28;20418;-46
2022/08/22 07:34:41;;;;;;;10.57;7.10;;;20.60;99.90;;;;;;5092358;28;20476;-46
2022/08/22 07:37:16;;;;;;;8.27;6.43;;;20.60;99.90;;;;;;5090059;28;20414;-51
2022/08/22 07:39:59;;;;;;;9.00;6.47;;;20.70;99.90;;;;;;5091817;28;20420;-51
2022/08/22 07:42:52;;;;;;;7.47;6.20;;;20.70;99.90;;;;;;5092172;28;20467;-45
2022/08/22 07:45:30;;;;;;;10.43;7.43;;;20.80;99.90;;;;;;5092279;28;20430;-47
2022/08/22 07:48:15;;;;;;;11.70;6.30;;;20.90;99.90;;;;;;5091762;28;20980;-46
2022/08/22 07:51:12;;;;;;;6.97;5.63;;;20.90;99.90;;;;;;5092143;28;20437;-45
2022/08/22 07:53:43;;;;;;;11.33;7.40;;;21.00;99.90;;;;;;5090868;28;20422;-47
2022/08/22 07:56:15;;;;;;;8.87;5.97;;;21.10;99.90;;;;;;5090784;28;20492;-47
2022/08/22 07:58:45;;;;;;;8.80;6.33;;;21.20;99.90;;;;;;5091092;28;20433;-48
2022/08/22 08:01:17;;;;;;;11.47;6.57;;;21.30;99.90;;;;;;5092258;28;20434;-47
2022/08/22 08:03:51;;;;;;;11.50;6.50;;;21.30;99.90;;;;;;5091094;28;20434;-48
2022/08/22 08:06:23;;;;;;;10.83;5.40;;;21.40;99.90;;;;;;5091534;28;21167;-49
2022/08/22 08:08:50;;;;;;;9.33;4.80;;;21.50;99.90;;;;;;5091169;28;20525;-47
2022/08/22 08:11:18;;;;;;;7.87;5.37;;;21.50;99.90;;;;;;5091839;28;20455;-45
2022/08/22 08:13:51;;;;;;;12.30;5.33;;;21.60;99.90;;;;;;5091828;28;20426;-50
2022/08/22 08:16:33;;;;;;;6.10;3.70;;;21.70;99.90;;;;;;5091845;28;21078;-47
2022/08/22 08:19:01;;;;;;;7.63;5.00;;;21.70;99.90;;;;;;5091634;28;20423;-47
2022/08/22 08:21:34;;;;;;;4.50;4.10;;;21.70;99.90;;;;;;5091099;28;20829;-50
2022/08/22 08:24:01;;;;;;;6.07;4.20;;;21.80;99.90;;;;;;5091359;28;20473;-50
2022/08/22 08:26:37;;;;;;;8.30;5.47;;;21.90;99.90;;;;;;5091037;28;20462;-47
2022/08/22 08:29:04;;;;;;;6.90;5.83;;;22.00;99.90;;;;;;5090784;28;20487;-47
2022/08/22 08:31:36;;;;;;;6.10;5.07;;;22.10;99.90;;;;;;5090820;28;20758;-48
2022/08/22 08:34:18;;;;;;;7.37;5.10;;;22.10;99.90;;;;;;5090629;28;20426;-48
2022/08/22 08:36:55;;;;;;;12.40;6.83;;;22.20;99.90;;;;;;5090431;28;20426;-46
2022/08/22 08:39:29;;;;;;;7.53;6.70;;;22.20;99.90;;;;;;5090780;28;20421;-45
2022/08/22 08:42:26;;;;;;;12.77;7.60;;;22.20;99.90;;;;;;5090539;28;20432;-45
2022/08/22 08:45:01;;;;;;;10.20;6.73;;;22.30;99.90;;;;;;5090910;28;20846;-47
2022/08/22 08:47:59;;;;;;;8.23;6.67;;;22.30;99.90;;;;;;5089863;28;20952;-51
2022/08/22 08:50:56;;;;;;;7.23;6.53;;;22.40;99.90;;;;;;5089869;28;20505;-49
2022/08/22 08:53:48;;;;;;;6.30;5.70;;;22.50;99.90;;;;;;5088907;28;20424;-46
2022/08/22 08:56:42;;;;;;;7.80;5.50;;;22.50;99.90;;;;;;5088397;28;20766;-45
2022/08/22 08:59:22;;;;;;;10.80;6.00;;;22.60;99.90;;;;;;5088475;28;20450;-49
2022/08/22 09:02:12;;;;;;;7.93;5.30;;;22.70;99.90;;;;;;5088735;28;20425;-49
2022/08/22 09:05:16;;;;;;;10.90;4.90;;;22.70;99.90;;;;;;5087570;28;20936;-48
2022/08/22 09:08:00;;;;;;;6.80;4.87;;;22.80;99.90;;;;;;5087109;28;20485;-45
2022/08/22 09:10:54;;;;;;;6.10;4.40;;;23.00;99.90;;;;;;5087434;28;20418;-45
2022/08/22 09:13:34;;;;;;;4.33;3.67;;;23.10;99.90;;;;;;5086045;28;20429;-49
2022/08/22 09:16:05;;;;;;;5.00;3.90;;;23.20;99.90;;;;;;5088929;28;20422;-44
2022/08/22 09:19:00;;;;;;;4.60;3.17;;;23.30;99.90;;;;;;5074338;28;20989;-47
2022/08/22 09:21:48;;;;;;;3.57;3.27;;;23.40;99.90;;;;;;5085486;28;20924;-46
2022/08/22 09:24:31;;;;;;;3.70;2.47;;;23.50;99.90;;;;;;5086154;28;20559;-45
2022/08/22 09:27:02;;;;;;;5.77;2.93;;;23.60;99.90;;;;;;5086772;28;21171;-47
2022/08/22 09:30:14;;;;;;;7.73;3.30;;;23.70;99.80;;;;;;5089273;28;20422;-43
2022/08/22 09:32:59;;;;;;;7.53;2.87;;;23.70;99.90;;;;;;5059830;28;20431;-47
2022/08/22 09:35:25;;;;;;;9.40;4.30;;;23.80;99.90;;;;;;5066035;28;20487;-44
2022/08/22 09:38:35;;;;;;;6.53;4.33;;;23.80;99.90;;;;;;5077847;28;20501;-47
2022/08/22 09:41:29;;;;;;;5.83;3.00;;;24.00;99.90;;;;;;5066334;28;20279;-44
2022/08/22 09:44:24;;;;;;;4.03;3.10;;;24.10;99.90;;;;;;5088958;28;20502;-47
2022/08/22 09:46:56;;;;;;;3.53;3.20;;;24.20;99.90;;;;;;5087996;28;20503;-47
2022/08/22 09:49:35;;;;;;;7.23;3.30;;;24.40;99.90;;;;;;5088949;28;20422;-47
2022/08/22 09:52:26;;;;;;;5.80;3.53;;;24.50;99.50;;;;;;5082467;28;20425;-46
2022/08/22 09:55:33;;;;;;;5.20;3.60;;;24.60;99.30;;;;;;5052618;28;20898;-46
2022/08/22 09:58:05;;;;;;;5.60;3.30;;;24.80;99.20;;;;;;5076292;28;20438;-45
2022/08/22 10:00:45;;;;;;;3.97;2.97;;;24.90;99.20;;;;;;5087445;28;20438;-47
2022/08/22 10:03:25;;;;;;;5.87;2.83;;;25.00;97.80;;;;;;5088900;28;20525;-46
2022/08/22 10:05:55;;;;;;;6.07;3.20;;;25.10;97.70;;;;;;5076175;28;20533;-48
2022/08/22 10:08:37;;;;;;;9.30;4.00;;;25.20;97.40;;;;;;5088138;28;20483;-45
2022/08/22 10:11:17;;;;;;;6.87;4.10;;;25.20;97.90;;;;;;5089035;28;20425;-46
2022/08/22 10:13:45;;;;;;;9.00;3.87;;;25.20;97.60;;;;;;5088867;28;20724;-46
2022/08/22 10:16:30;;;;;;;6.87;2.83;;;25.30;97.30;;;;;;5088573;28;20422;-46
2022/08/22 10:18:56;;;;;;;4.40;3.10;;;25.40;97.80;;;;;;5085965;28;20819;-48
2022/08/22 10:21:29;;;;;;;6.13;3.00;;;25.50;97.90;;;;;;5083651;28;20418;-47
2022/08/22 10:24:21;;;;;;;4.77;3.50;;;25.60;96.70;;;;;;5088380;28;20288;-50
2022/08/22 10:26:53;;;;;;;5.67;3.10;;;25.70;97.40;;;;;;5084996;28;21112;-51
2022/08/22 10:29:50;;;;;;;4.30;3.23;;;25.80;97.10;;;;;;5094872;28;20780;-45
2022/08/22 10:32:48;;;;;;;5.63;3.03;;;25.80;96.10;;;;;;5092845;28;20456;-47
2022/08/22 10:35:31;;;;;;;3.70;2.90;;;25.90;96.00;;;;;;5092940;28;20422;-47
2022/08/22 10:38:31;;;;;;;2.80;2.60;;;26.00;95.50;;;;;;5091669;28;20909;-47
2022/08/22 10:41:36;;;;;;;4.60;3.60;;;26.20;96.00;;;;;;5070270;28;20517;-46
2022/08/22 10:44:35;;;;;;;4.47;2.90;;;26.20;94.80;;;;;;5092135;28;20418;-46
2022/08/22 10:47:12;;;;;;;6.33;3.27;;;26.20;94.10;;;;;;5091856;28;20457;-46
2022/08/22 10:49:50;;;;;;;4.70;3.17;;;26.30;94.30;;;;;;5092608;28;20418;-48
2022/08/22 10:52:46;;;;;;;4.70;3.10;;;26.40;93.60;;;;;;5092653;28;20417;-45
2022/08/22 10:55:19;;;;;;;3.40;2.70;;;26.40;93.80;;;;;;5091411;28;20759;-46
2022/08/22 10:58:11;;;;;;;5.50;3.03;;;26.50;93.50;;;;;;5091202;28;20432;-47
2022/08/22 11:00:51;;;;;;;5.50;3.20;;;26.40;95.10;;;;;;5093006;28;20858;-50
2022/08/22 11:03:58;;;;;;;4.40;2.73;;;26.60;95.10;;;;;;5092926;28;20920;-52
2022/08/22 11:06:40;;;;;;;3.70;3.30;;;26.70;95.20;;;;;;5085176;28;20466;-48
2022/08/22 11:09:21;;;;;;;4.73;3.10;;;26.80;95.50;;;;;;5092226;28;20469;-49
2022/08/22 11:11:54;;;;;;;3.20;2.90;;;27.00;94.60;;;;;;5092893;28;20414;-46
2022/08/22 11:14:29;;;;;;;5.27;3.10;;;27.00;93.30;;;;;;5092407;28;20976;-48
2022/08/22 11:17:03;;;;;;;3.70;3.40;;;27.00;93.50;;;;;;5092036;28;20774;-44
2022/08/22 11:19:37;;;;;;;3.00;2.80;;;27.10;92.70;;;;;;5092322;28;20425;-48
2022/08/22 11:22:22;;;;;;;3.50;3.20;;;27.10;91.80;;;;;;5091659;28;20425;-48
2022/08/22 11:25:17;;;;;;;5.00;3.50;;;27.10;92.00;;;;;;5091891;28;20437;-45
2022/08/22 11:27:55;;;;;;;4.43;3.23;;;27.10;91.30;;;;;;5089067;28;21058;-52
2022/08/22 11:30:30;;;;;;;6.80;3.77;;;27.00;91.80;;;;;;5099825;28;20853;-44
2022/08/22 11:33:39;;;;;;;3.60;3.03;;;26.90;91.80;;;;;;5092422;28;20497;-50
2022/08/22 11:36:04;;;;;;;3.97;3.10;;;26.90;91.80;;;;;;5064626;28;20493;-44
2022/08/22 11:38:30;;;;;;;4.77;3.13;;;27.10;93.80;;;;;;5058746;28;20432;-48
2022/08/22 11:41:07;;;;;;;4.70;3.60;;;27.20;92.70;;;;;;5068453;28;20250;-46
2022/08/22 11:43:41;;;;;;;4.40;3.10;;;27.30;91.40;;;;;;5091692;28;20214;-49
2022/08/22 11:46:19;;;;;;;4.33;2.90;;;27.40;90.40;;;;;;5090462;28;22372;-48
2022/08/22 11:49:12;;;;;;;3.73;3.40;;;27.50;90.90;;;;;;5091454;28;20567;-45
2022/08/22 11:51:56;;;;;;;4.23;3.03;;;27.60;91.10;;;;;;5092201;28;20990;-46
2022/08/22 11:54:49;;;;;;;3.33;2.70;;;27.80;91.50;;;;;;5092270;28;20486;-46
2022/08/22 11:57:37;;;;;;;4.27;3.17;;;27.90;91.00;;;;;;5085321;28;20437;-48
2022/08/22 12:00:13;;;;;;;4.03;3.17;;;28.10;91.20;;;;;;5069883;28;20504;-47
2022/08/22 12:02:55;;;;;;;6.03;3.07;;;28.10;89.00;;;;;;5090335;28;20488;-48
2022/08/22 12:05:29;;;;;;;3.80;3.50;;;28.00;87.50;;;;;;5091644;28;20495;-46
2022/08/22 12:08:20;;;;;;;3.63;2.77;;;27.80;90.30;;;;;;5090903;28;20546;-48
2022/08/22 12:10:57;;;;;;;3.50;3.20;;;27.70;90.80;;;;;;5079799;28;20422;-49
2022/08/22 12:13:48;;;;;;;3.07;2.70;;;27.60;91.10;;;;;;5091215;28;20422;-46
2022/08/22 12:16:39;;;;;;;2.97;2.77;;;27.50;89.80;;;;;;5091809;28;20442;-47
2022/08/22 12:19:11;;;;;;;4.40;3.47;;;27.40;90.60;;;;;;5087361;28;20427;-48
2022/08/22 12:21:39;;;;;;;4.33;3.50;;;27.30;90.10;;;;;;5075843;28;20509;-47
2022/08/22 12:24:24;;;;;;;7.20;4.03;;;27.10;90.30;;;;;;5091504;28;20427;-47
2022/08/22 12:26:59;;;;;;;6.80;3.40;;;27.00;90.50;;;;;;5090347;28;20485;-46
2022/08/22 12:29:36;;;;;;;4.87;3.67;;;26.90;90.70;;;;;;5086880;28;20418;-44
2022/08/22 12:32:30;;;;;;;5.20;3.57;;;26.80;89.80;;;;;;5084221;28;20418;-46
2022/08/22 12:35:14;;;;;;;4.80;3.10;;;26.80;88.40;;;;;;5077436;28;20414;-51
2022/08/22 12:38:06;;;;;;;3.80;2.97;;;26.70;89.70;;;;;;5089988;28;20410;-47
2022/08/22 12:40:56;;;;;;;4.00;3.60;;;26.70;89.30;;;;;;5090599;28;20432;-45
2022/08/22 12:43:33;;;;;;;5.00;3.43;;;26.60;89.50;;;;;;5090681;28;20952;-45
2022/08/22 12:46:33;;;;;;;4.40;3.30;;;26.50;90.70;;;;;;5090649;28;20418;-47
2022/08/22 12:49:20;;;;;;;5.33;3.67;;;26.60;91.40;;;;;;5089123;28;20438;-46
2022/08/22 12:51:58;;;;;;;4.20;3.60;;;26.50;91.20;;;;;;5089599;28;20437;-48
2022/08/22 12:54:44;;;;;;;3.50;3.20;;;26.60;91.80;;;;;;5088788;28;20459;-46
2022/08/22 12:57:35;;;;;;;5.00;3.17;;;26.50;91.50;;;;;;5085784;28;20433;-43
2022/08/22 13:00:19;;;;;;;3.53;3.17;;;26.50;92.80;;;;;;5073667;28;20435;-45
2022/08/22 13:02:49;;;;;;;4.00;2.93;;;26.60;93.30;;;;;;5089673;28;20433;-46
2022/08/22 13:05:23;;;;;;;5.57;3.47;;;26.50;93.20;;;;;;5089935;28;20770;-45
2022/08/22 13:07:59;;;;;;;4.13;3.07;;;26.60;93.30;;;;;;5068988;28;20477;-49
2022/08/22 13:10:48;;;;;;;3.43;3.13;;;26.60;93.40;;;;;;5089872;28;20505;-50
2022/08/22 13:13:37;;;;;;;3.50;3.03;;;26.70;92.90;;;;;;5089238;28;20921;-45
2022/08/22 13:16:16;;;;;;;4.57;3.30;;;26.60;93.00;;;;;;5089793;28;20426;-46
2022/08/22 13:18:49;;;;;;;7.27;3.27;;;26.70;92.80;;;;;;5086979;28;20414;-44
2022/08/22 13:21:20;;;;;;;10.43;3.50;;;26.70;92.90;;;;;;5090031;28;20777;-47
2022/08/22 13:23:52;;;;;;;3.90;3.60;;;26.70;92.20;;;;;;5087736;28;20463;-45
2022/08/22 13:26:29;;;;;;;4.20;3.60;;;26.70;93.10;;;;;;5089434;28;21207;-46
2022/08/22 13:29:13;;;;;;;5.43;3.40;;;26.70;93.40;;;;;;5088025;28;20437;-51
2022/08/22 13:31:41;;;;;;;5.20;3.57;;;26.70;93.10;;;;;;5088809;28;20477;-45
2022/08/22 13:34:27;;;;;;;4.27;3.87;;;26.70;92.30;;;;;;5086970;28;20419;-48
2022/08/22 13:36:58;;;;;;;6.67;3.87;;;26.60;92.40;;;;;;5088859;28;20427;-47
2022/08/22 13:39:31;;;;;;;4.10;3.70;;;26.60;91.70;;;;;;5089539;28;20419;-51
2022/08/22 13:41:59;;;;;;;4.80;3.90;;;26.60;91.50;;;;;;5089552;28;20513;-48
2022/08/22 13:44:29;;;;;;;3.83;3.30;;;26.50;92.30;;;;;;5088378;28;20423;-46
2022/08/22 13:47:09;;;;;;;5.00;3.37;;;26.40;91.50;;;;;;5087700;28;20462;-47
2022/08/22 13:49:47;;;;;;;4.90;3.20;;;26.40;92.10;;;;;;5088268;28;20848;-50
2022/08/22 13:52:25;;;;;;;6.43;3.90;;;26.50;93.10;;;;;;5088635;28;20503;-48
2022/08/22 13:55:24;;;;;;;6.07;3.60;;;26.40;93.20;;;;;;5078285;28;20948;-51
2022/08/22 13:57:57;;;;;;;5.30;3.50;;;26.40;93.70;;;;;;5086121;28;21066;-47
2022/08/22 14:00:37;;;;;;;4.00;3.50;;;26.50;93.80;;;;;;5088484;28;20781;-46